sensor_id;sensor_type;location;lat;lon;timestamp;P1;durP1;ratioP1;P2;durP2;ratioP2
27792;SDS011;15174;48.190;11.462;2024-02-26T00:01:47;10.10;;;4.20;;
27792;SDS011;15174;48.190;11.462;2024-02-26T00:04:14;7.57;;;4.55;;
27792;SDS011;15174;48.190;11.462;2024-02-26T00:06:40;7.43;;;4.00;;
27792;SDS011;15174;48.190;11.462;2024-02-26T00:09:06;9.38;;;5.05;;
27792;SDS011;15174;48.190;11.462;2024-02-26T00:11:33;9.88;;;4.70;;
27792;SDS011;15174;48.190;11.462;2024-02-26T00:14:00;12.68;;;6.22;;
27792;SDS011;15174;48.190;11.462;2024-02-26T00:16:26;10.68;;;5.68;;
27792;SDS011;15174;48.190;11.462;2024-02-26T00:18:52;8.65;;;4.68;;
27792;SDS011;15174;48.190;11.462;2024-02-26T00:21:18;10.35;;;5.13;;
27792;SDS011;15174;48.190;11.462;2024-02-26T00:23:44;8.50;;;5.40;;
27792;SDS011;15174;48.190;11.462;2024-02-26T00:26:11;11.20;;;5.63;;
27792;SDS011;15174;48.190;11.462;2024-02-26T00:28:37;11.15;;;5.55;;
27792;SDS011;15174;48.190;11.462;2024-02-26T00:31:04;12.45;;;5.22;;
27792;SDS011;15174;48.190;11.462;2024-02-26T00:33:30;13.57;;;5.15;;
27792;SDS011;15174;48.190;11.462;2024-02-26T00:35:57;13.15;;;5.55;;
27792;SDS011;15174;48.190;11.462;2024-02-26T00:38:23;10.82;;;5.28;;
27792;SDS011;15174;48.190;11.462;2024-02-26T00:40:48;11.35;;;6.07;;
27792;SDS011;15174;48.190;11.462;2024-02-26T00:43:14;10.68;;;6.10;;
27792;SDS011;15174;48.190;11.462;2024-02-26T00:45:40;10.68;;;6.07;;
27792;SDS011;15174;48.190;11.462;2024-02-26T00:48:06;14.15;;;5.78;;
27792;SDS011;15174;48.190;11.462;2024-02-26T00:50:32;8.35;;;5.18;;
27792;SDS011;15174;48.190;11.462;2024-02-26T00:52:59;8.73;;;5.00;;
27792;SDS011;15174;48.190;11.462;2024-02-26T00:55:25;9.25;;;5.35;;
27792;SDS011;15174;48.190;11.462;2024-02-26T00:57:51;14.15;;;5.82;;
27792;SDS011;15174;48.190;11.462;2024-02-26T01:00:16;11.20;;;5.45;;
27792;SDS011;15174;48.190;11.462;2024-02-26T01:02:42;9.82;;;5.40;;
27792;SDS011;15174;48.190;11.462;2024-02-26T01:05:08;10.52;;;5.35;;
27792;SDS011;15174;48.190;11.462;2024-02-26T01:07:34;8.73;;;5.38;;
27792;SDS011;15174;48.190;11.462;2024-02-26T01:10:04;10.07;;;5.55;;
27792;SDS011;15174;48.190;11.462;2024-02-26T01:12:31;9.35;;;5.88;;
27792;SDS011;15174;48.190;11.462;2024-02-26T01:14:59;11.07;;;5.28;;
27792;SDS011;15174;48.190;11.462;2024-02-26T01:17:26;8.15;;;5.15;;
27792;SDS011;15174;48.190;11.462;2024-02-26T01:19:52;9.23;;;4.85;;
27792;SDS011;15174;48.190;11.462;2024-02-26T01:22:18;9.10;;;4.93;;
27792;SDS011;15174;48.190;11.462;2024-02-26T01:24:46;13.90;;;5.43;;
27792;SDS011;15174;48.190;11.462;2024-02-26T01:27:11;9.57;;;5.10;;
27792;SDS011;15174;48.190;11.462;2024-02-26T01:29:39;11.30;;;5.70;;
27792;SDS011;15174;48.190;11.462;2024-02-26T01:32:05;7.88;;;5.50;;
27792;SDS011;15174;48.190;11.462;2024-02-26T01:34:31;8.77;;;4.60;;
27792;SDS011;15174;48.190;11.462;2024-02-26T01:36:56;7.63;;;4.75;;
27792;SDS011;15174;48.190;11.462;2024-02-26T01:39:22;8.02;;;4.28;;
27792;SDS011;15174;48.190;11.462;2024-02-26T01:41:48;7.35;;;4.70;;
27792;SDS011;15174;48.190;11.462;2024-02-26T01:44:13;7.75;;;4.32;;
27792;SDS011;15174;48.190;11.462;2024-02-26T01:46:39;10.50;;;4.85;;
27792;SDS011;15174;48.190;11.462;2024-02-26T01:49:05;5.05;;;3.85;;
27792;SDS011;15174;48.190;11.462;2024-02-26T01:51:32;5.63;;;3.85;;
27792;SDS011;15174;48.190;11.462;2024-02-26T01:53:59;6.07;;;3.92;;
27792;SDS011;15174;48.190;11.462;2024-02-26T01:56:27;6.00;;;3.13;;
27792;SDS011;15174;48.190;11.462;2024-02-26T01:58:56;5.97;;;3.85;;
27792;SDS011;15174;48.190;11.462;2024-02-26T02:01:24;8.60;;;4.57;;
27792;SDS011;15174;48.190;11.462;2024-02-26T02:03:52;7.70;;;4.63;;
27792;SDS011;15174;48.190;11.462;2024-02-26T02:06:19;5.97;;;4.07;;
27792;SDS011;15174;48.190;11.462;2024-02-26T02:08:46;6.63;;;4.43;;
27792;SDS011;15174;48.190;11.462;2024-02-26T02:11:12;7.50;;;4.00;;
27792;SDS011;15174;48.190;11.462;2024-02-26T02:13:37;8.43;;;4.00;;
27792;SDS011;15174;48.190;11.462;2024-02-26T02:16:03;7.35;;;3.75;;
27792;SDS011;15174;48.190;11.462;2024-02-26T02:18:29;7.25;;;3.80;;
27792;SDS011;15174;48.190;11.462;2024-02-26T02:20:55;5.78;;;4.00;;
27792;SDS011;15174;48.190;11.462;2024-02-26T02:23:24;9.20;;;4.00;;
27792;SDS011;15174;48.190;11.462;2024-02-26T02:25:50;6.82;;;4.25;;
27792;SDS011;15174;48.190;11.462;2024-02-26T02:28:16;6.78;;;3.85;;
27792;SDS011;15174;48.190;11.462;2024-02-26T02:30:42;9.43;;;4.03;;
27792;SDS011;15174;48.190;11.462;2024-02-26T02:33:08;9.80;;;4.43;;
27792;SDS011;15174;48.190;11.462;2024-02-26T02:35:34;8.07;;;3.85;;
27792;SDS011;15174;48.190;11.462;2024-02-26T02:38:00;13.38;;;3.70;;
27792;SDS011;15174;48.190;11.462;2024-02-26T02:40:25;6.40;;;3.85;;
27792;SDS011;15174;48.190;11.462;2024-02-26T02:42:51;5.82;;;3.70;;
27792;SDS011;15174;48.190;11.462;2024-02-26T02:45:16;9.23;;;4.20;;
27792;SDS011;15174;48.190;11.462;2024-02-26T02:47:42;5.80;;;3.80;;
27792;SDS011;15174;48.190;11.462;2024-02-26T02:50:08;5.43;;;3.47;;
27792;SDS011;15174;48.190;11.462;2024-02-26T02:52:34;6.18;;;3.55;;
27792;SDS011;15174;48.190;11.462;2024-02-26T02:54:59;7.07;;;3.95;;
27792;SDS011;15174;48.190;11.462;2024-02-26T02:57:25;5.97;;;3.75;;
27792;SDS011;15174;48.190;11.462;2024-02-26T02:59:51;6.93;;;3.95;;
27792;SDS011;15174;48.190;11.462;2024-02-26T03:02:17;8.85;;;3.85;;
27792;SDS011;15174;48.190;11.462;2024-02-26T03:04:42;8.98;;;4.07;;
27792;SDS011;15174;48.190;11.462;2024-02-26T03:07:08;8.05;;;4.15;;
27792;SDS011;15174;48.190;11.462;2024-02-26T03:09:33;6.90;;;4.82;;
27792;SDS011;15174;48.190;11.462;2024-02-26T03:11:59;8.55;;;3.80;;
27792;SDS011;15174;48.190;11.462;2024-02-26T03:14:25;8.45;;;3.45;;
27792;SDS011;15174;48.190;11.462;2024-02-26T03:16:54;6.05;;;3.80;;
27792;SDS011;15174;48.190;11.462;2024-02-26T03:19:20;5.63;;;3.22;;
27792;SDS011;15174;48.190;11.462;2024-02-26T03:21:46;7.63;;;3.45;;
27792;SDS011;15174;48.190;11.462;2024-02-26T03:24:11;4.43;;;2.90;;
27792;SDS011;15174;48.190;11.462;2024-02-26T03:26:37;7.53;;;3.75;;
27792;SDS011;15174;48.190;11.462;2024-02-26T03:29:03;7.45;;;3.50;;
27792;SDS011;15174;48.190;11.462;2024-02-26T03:31:29;6.10;;;4.13;;
27792;SDS011;15174;48.190;11.462;2024-02-26T03:33:55;7.32;;;3.40;;
27792;SDS011;15174;48.190;11.462;2024-02-26T03:36:20;5.95;;;3.13;;
27792;SDS011;15174;48.190;11.462;2024-02-26T03:38:46;5.82;;;3.28;;
27792;SDS011;15174;48.190;11.462;2024-02-26T03:41:13;8.95;;;3.03;;
27792;SDS011;15174;48.190;11.462;2024-02-26T03:43:39;5.63;;;3.53;;
27792;SDS011;15174;48.190;11.462;2024-02-26T03:46:08;8.57;;;3.80;;
27792;SDS011;15174;48.190;11.462;2024-02-26T03:48:36;4.32;;;2.83;;
27792;SDS011;15174;48.190;11.462;2024-02-26T03:51:02;4.85;;;3.15;;
27792;SDS011;15174;48.190;11.462;2024-02-26T03:53:28;4.20;;;3.13;;
27792;SDS011;15174;48.190;11.462;2024-02-26T03:55:54;5.40;;;3.45;;
27792;SDS011;15174;48.190;11.462;2024-02-26T03:58:20;6.82;;;3.33;;
27792;SDS011;15174;48.190;11.462;2024-02-26T04:00:46;6.15;;;3.05;;
27792;SDS011;15174;48.190;11.462;2024-02-26T04:03:13;7.30;;;3.03;;
27792;SDS011;15174;48.190;11.462;2024-02-26T04:05:39;8.50;;;3.17;;
27792;SDS011;15174;48.190;11.462;2024-02-26T04:08:05;9.00;;;3.47;;
27792;SDS011;15174;48.190;11.462;2024-02-26T04:10:32;6.20;;;4.32;;
27792;SDS011;15174;48.190;11.462;2024-02-26T04:15:25;6.15;;;3.60;;
27792;SDS011;15174;48.190;11.462;2024-02-26T04:17:51;8.05;;;3.58;;
27792;SDS011;15174;48.190;11.462;2024-02-26T04:20:17;5.57;;;3.20;;
27792;SDS011;15174;48.190;11.462;2024-02-26T04:22:43;6.85;;;3.05;;
27792;SDS011;15174;48.190;11.462;2024-02-26T04:25:09;4.57;;;2.97;;
27792;SDS011;15174;48.190;11.462;2024-02-26T04:27:35;5.20;;;3.15;;
27792;SDS011;15174;48.190;11.462;2024-02-26T04:30:01;4.85;;;3.17;;
27792;SDS011;15174;48.190;11.462;2024-02-26T04:32:27;8.32;;;3.20;;
27792;SDS011;15174;48.190;11.462;2024-02-26T04:34:53;6.70;;;3.30;;
27792;SDS011;15174;48.190;11.462;2024-02-26T04:37:19;7.70;;;3.88;;
27792;SDS011;15174;48.190;11.462;2024-02-26T04:39:44;4.53;;;2.70;;
27792;SDS011;15174;48.190;11.462;2024-02-26T04:42:10;5.32;;;3.40;;
27792;SDS011;15174;48.190;11.462;2024-02-26T04:44:36;5.00;;;2.80;;
27792;SDS011;15174;48.190;11.462;2024-02-26T04:47:02;8.23;;;3.13;;
27792;SDS011;15174;48.190;11.462;2024-02-26T04:49:28;7.45;;;3.00;;
27792;SDS011;15174;48.190;11.462;2024-02-26T04:51:54;6.38;;;2.97;;
27792;SDS011;15174;48.190;11.462;2024-02-26T04:54:20;6.63;;;3.20;;
27792;SDS011;15174;48.190;11.462;2024-02-26T04:56:46;13.32;;;3.15;;
27792;SDS011;15174;48.190;11.462;2024-02-26T04:59:13;13.93;;;3.45;;
27792;SDS011;15174;48.190;11.462;2024-02-26T05:01:39;3.65;;;3.10;;
27792;SDS011;15174;48.190;11.462;2024-02-26T05:04:05;8.30;;;3.65;;
27792;SDS011;15174;48.190;11.462;2024-02-26T05:06:30;6.97;;;3.42;;
27792;SDS011;15174;48.190;11.462;2024-02-26T05:08:56;5.95;;;3.58;;
27792;SDS011;15174;48.190;11.462;2024-02-26T05:11:21;6.82;;;3.78;;
27792;SDS011;15174;48.190;11.462;2024-02-26T05:13:49;5.65;;;3.35;;
27792;SDS011;15174;48.190;11.462;2024-02-26T05:16:14;5.95;;;2.70;;
27792;SDS011;15174;48.190;11.462;2024-02-26T05:18:40;15.93;;;4.43;;
27792;SDS011;15174;48.190;11.462;2024-02-26T05:21:11;11.77;;;4.70;;
27792;SDS011;15174;48.190;11.462;2024-02-26T05:23:37;8.18;;;3.42;;
27792;SDS011;15174;48.190;11.462;2024-02-26T05:26:03;6.80;;;3.70;;
27792;SDS011;15174;48.190;11.462;2024-02-26T05:28:28;13.57;;;4.05;;
27792;SDS011;15174;48.190;11.462;2024-02-26T05:30:54;7.38;;;4.85;;
27792;SDS011;15174;48.190;11.462;2024-02-26T05:33:20;9.63;;;4.78;;
27792;SDS011;15174;48.190;11.462;2024-02-26T05:35:46;11.30;;;6.13;;
27792;SDS011;15174;48.190;11.462;2024-02-26T05:38:11;9.30;;;4.70;;
27792;SDS011;15174;48.190;11.462;2024-02-26T05:40:37;6.22;;;3.78;;
27792;SDS011;15174;48.190;11.462;2024-02-26T05:43:03;5.07;;;3.38;;
27792;SDS011;15174;48.190;11.462;2024-02-26T05:45:29;11.93;;;4.35;;
27792;SDS011;15174;48.190;11.462;2024-02-26T05:47:55;4.63;;;3.33;;
27792;SDS011;15174;48.190;11.462;2024-02-26T05:50:20;13.10;;;4.00;;
27792;SDS011;15174;48.190;11.462;2024-02-26T05:52:46;5.97;;;3.47;;
27792;SDS011;15174;48.190;11.462;2024-02-26T05:55:12;7.15;;;3.67;;
27792;SDS011;15174;48.190;11.462;2024-02-26T05:57:38;7.63;;;3.55;;
27792;SDS011;15174;48.190;11.462;2024-02-26T06:00:04;5.78;;;3.55;;
27792;SDS011;15174;48.190;11.462;2024-02-26T06:02:39;6.97;;;3.22;;
27792;SDS011;15174;48.190;11.462;2024-02-26T06:05:05;7.45;;;3.50;;
27792;SDS011;15174;48.190;11.462;2024-02-26T06:09:59;6.70;;;3.38;;
27792;SDS011;15174;48.190;11.462;2024-02-26T06:12:26;5.80;;;3.55;;
27792;SDS011;15174;48.190;11.462;2024-02-26T06:14:53;12.00;;;3.70;;
27792;SDS011;15174;48.190;11.462;2024-02-26T06:17:19;7.28;;;3.72;;
27792;SDS011;15174;48.190;11.462;2024-02-26T06:19:45;10.52;;;4.15;;
27792;SDS011;15174;48.190;11.462;2024-02-26T06:22:11;7.40;;;3.60;;
27792;SDS011;15174;48.190;11.462;2024-02-26T06:24:36;12.20;;;3.88;;
27792;SDS011;15174;48.190;11.462;2024-02-26T06:27:02;7.18;;;4.38;;
27792;SDS011;15174;48.190;11.462;2024-02-26T06:29:28;9.68;;;3.97;;
27792;SDS011;15174;48.190;11.462;2024-02-26T06:31:54;8.77;;;4.05;;
27792;SDS011;15174;48.190;11.462;2024-02-26T06:34:20;13.02;;;4.22;;
27792;SDS011;15174;48.190;11.462;2024-02-26T06:36:46;9.32;;;4.15;;
27792;SDS011;15174;48.190;11.462;2024-02-26T06:39:12;10.27;;;4.22;;
27792;SDS011;15174;48.190;11.462;2024-02-26T06:41:38;7.53;;;4.30;;
27792;SDS011;15174;48.190;11.462;2024-02-26T06:44:04;10.65;;;4.75;;
27792;SDS011;15174;48.190;11.462;2024-02-26T06:46:30;8.20;;;4.57;;
27792;SDS011;15174;48.190;11.462;2024-02-26T06:48:56;9.98;;;4.90;;
27792;SDS011;15174;48.190;11.462;2024-02-26T06:51:22;8.18;;;4.25;;
27792;SDS011;15174;48.190;11.462;2024-02-26T06:53:48;8.43;;;4.97;;
27792;SDS011;15174;48.190;11.462;2024-02-26T06:56:14;8.48;;;4.35;;
27792;SDS011;15174;48.190;11.462;2024-02-26T06:58:40;12.70;;;4.45;;
27792;SDS011;15174;48.190;11.462;2024-02-26T07:01:06;7.22;;;4.57;;
27792;SDS011;15174;48.190;11.462;2024-02-26T07:03:33;8.70;;;4.82;;
27792;SDS011;15174;48.190;11.462;2024-02-26T07:05:59;7.53;;;4.63;;
27792;SDS011;15174;48.190;11.462;2024-02-26T07:08:25;10.50;;;5.30;;
27792;SDS011;15174;48.190;11.462;2024-02-26T07:10:50;10.00;;;5.65;;
27792;SDS011;15174;48.190;11.462;2024-02-26T07:13:16;10.25;;;5.28;;
27792;SDS011;15174;48.190;11.462;2024-02-26T07:15:42;16.65;;;5.82;;
27792;SDS011;15174;48.190;11.462;2024-02-26T07:18:08;20.23;;;5.85;;
27792;SDS011;15174;48.190;11.462;2024-02-26T07:20:35;13.07;;;6.07;;
27792;SDS011;15174;48.190;11.462;2024-02-26T07:23:01;16.60;;;6.45;;
27792;SDS011;15174;48.190;11.462;2024-02-26T07:25:28;18.98;;;8.00;;
27792;SDS011;15174;48.190;11.462;2024-02-26T07:27:54;18.30;;;8.05;;
27792;SDS011;15174;48.190;11.462;2024-02-26T07:30:20;23.35;;;8.13;;
27792;SDS011;15174;48.190;11.462;2024-02-26T07:32:45;19.08;;;8.10;;
27792;SDS011;15174;48.190;11.462;2024-02-26T07:35:11;14.82;;;7.05;;
27792;SDS011;15174;48.190;11.462;2024-02-26T07:37:37;13.52;;;6.93;;
27792;SDS011;15174;48.190;11.462;2024-02-26T07:40:03;18.58;;;6.35;;
27792;SDS011;15174;48.190;11.462;2024-02-26T07:42:29;10.30;;;6.05;;
27792;SDS011;15174;48.190;11.462;2024-02-26T07:44:55;10.40;;;5.55;;
27792;SDS011;15174;48.190;11.462;2024-02-26T07:47:20;12.05;;;5.53;;
27792;SDS011;15174;48.190;11.462;2024-02-26T07:49:46;11.23;;;5.88;;
27792;SDS011;15174;48.190;11.462;2024-02-26T07:52:12;14.35;;;6.13;;
27792;SDS011;15174;48.190;11.462;2024-02-26T07:54:38;14.63;;;6.28;;
27792;SDS011;15174;48.190;11.462;2024-02-26T07:57:03;19.42;;;6.97;;
27792;SDS011;15174;48.190;11.462;2024-02-26T07:59:30;13.38;;;7.03;;
27792;SDS011;15174;48.190;11.462;2024-02-26T08:01:56;15.20;;;6.85;;
27792;SDS011;15174;48.190;11.462;2024-02-26T08:04:22;20.80;;;6.72;;
27792;SDS011;15174;48.190;11.462;2024-02-26T08:06:48;15.15;;;6.75;;
27792;SDS011;15174;48.190;11.462;2024-02-26T08:09:14;13.80;;;6.95;;
27792;SDS011;15174;48.190;11.462;2024-02-26T08:11:41;11.48;;;6.18;;
27792;SDS011;15174;48.190;11.462;2024-02-26T08:14:06;12.77;;;6.53;;
27792;SDS011;15174;48.190;11.462;2024-02-26T08:16:32;15.13;;;7.93;;
27792;SDS011;15174;48.190;11.462;2024-02-26T08:18:57;14.40;;;6.72;;
27792;SDS011;15174;48.190;11.462;2024-02-26T08:21:32;14.68;;;6.65;;
27792;SDS011;15174;48.190;11.462;2024-02-26T08:27:52;12.20;;;6.93;;
27792;SDS011;15174;48.190;11.462;2024-02-26T08:30:18;12.57;;;6.65;;
27792;SDS011;15174;48.190;11.462;2024-02-26T08:32:44;13.52;;;7.13;;
27792;SDS011;15174;48.190;11.462;2024-02-26T08:35:10;13.75;;;6.82;;
27792;SDS011;15174;48.190;11.462;2024-02-26T08:37:36;16.60;;;6.78;;
27792;SDS011;15174;48.190;11.462;2024-02-26T08:40:02;19.25;;;6.72;;
27792;SDS011;15174;48.190;11.462;2024-02-26T08:42:29;13.48;;;7.32;;
27792;SDS011;15174;48.190;11.462;2024-02-26T08:44:55;14.70;;;6.03;;
27792;SDS011;15174;48.190;11.462;2024-02-26T08:47:20;13.52;;;6.70;;
27792;SDS011;15174;48.190;11.462;2024-02-26T08:49:46;17.38;;;6.63;;
27792;SDS011;15174;48.190;11.462;2024-02-26T08:52:12;10.10;;;5.75;;
27792;SDS011;15174;48.190;11.462;2024-02-26T08:54:38;15.25;;;7.07;;
27792;SDS011;15174;48.190;11.462;2024-02-26T08:57:05;15.02;;;6.82;;
27792;SDS011;15174;48.190;11.462;2024-02-26T08:59:31;14.50;;;7.28;;
27792;SDS011;15174;48.190;11.462;2024-02-26T09:01:56;16.77;;;7.85;;
27792;SDS011;15174;48.190;11.462;2024-02-26T09:04:22;14.90;;;7.22;;
27792;SDS011;15174;48.190;11.462;2024-02-26T09:06:48;13.23;;;6.63;;
27792;SDS011;15174;48.190;11.462;2024-02-26T09:09:14;11.93;;;6.85;;
27792;SDS011;15174;48.190;11.462;2024-02-26T09:11:39;11.40;;;6.32;;
27792;SDS011;15174;48.190;11.462;2024-02-26T09:14:05;13.23;;;7.00;;
27792;SDS011;15174;48.190;11.462;2024-02-26T09:16:31;16.17;;;7.03;;
27792;SDS011;15174;48.190;11.462;2024-02-26T09:18:56;16.58;;;6.75;;
27792;SDS011;15174;48.190;11.462;2024-02-26T09:21:22;15.77;;;7.00;;
27792;SDS011;15174;48.190;11.462;2024-02-26T09:23:50;14.35;;;7.22;;
27792;SDS011;15174;48.190;11.462;2024-02-26T09:26:16;20.33;;;7.60;;
27792;SDS011;15174;48.190;11.462;2024-02-26T09:28:42;12.18;;;6.95;;
27792;SDS011;15174;48.190;11.462;2024-02-26T09:31:07;11.45;;;6.45;;
27792;SDS011;15174;48.190;11.462;2024-02-26T09:33:33;16.27;;;6.35;;
27792;SDS011;15174;48.190;11.462;2024-02-26T09:35:59;13.43;;;5.93;;
27792;SDS011;15174;48.190;11.462;2024-02-26T09:38:28;13.05;;;6.13;;
27792;SDS011;15174;48.190;11.462;2024-02-26T09:41:02;9.68;;;5.38;;
27792;SDS011;15174;48.190;11.462;2024-02-26T09:43:29;14.15;;;6.05;;
27792;SDS011;15174;48.190;11.462;2024-02-26T09:46:00;17.98;;;5.20;;
27792;SDS011;15174;48.190;11.462;2024-02-26T09:48:26;8.70;;;4.32;;
27792;SDS011;15174;48.190;11.462;2024-02-26T09:50:52;12.48;;;4.53;;
27792;SDS011;15174;48.190;11.462;2024-02-26T09:53:18;14.43;;;5.10;;
27792;SDS011;15174;48.190;11.462;2024-02-26T09:55:52;11.75;;;3.50;;
27792;SDS011;15174;48.190;11.462;2024-02-26T09:58:18;6.05;;;3.08;;
27792;SDS011;15174;48.190;11.462;2024-02-26T10:00:46;6.75;;;3.13;;
27792;SDS011;15174;48.190;11.462;2024-02-26T10:03:13;6.75;;;3.15;;
27792;SDS011;15174;48.190;11.462;2024-02-26T10:05:41;5.35;;;3.03;;
27792;SDS011;15174;48.190;11.462;2024-02-26T10:08:08;15.15;;;3.08;;
27792;SDS011;15174;48.190;11.462;2024-02-26T10:10:34;8.10;;;3.17;;
27792;SDS011;15174;48.190;11.462;2024-02-26T10:13:02;9.23;;;2.40;;
27792;SDS011;15174;48.190;11.462;2024-02-26T10:15:34;9.18;;;2.10;;
27792;SDS011;15174;48.190;11.462;2024-02-26T10:18:03;10.52;;;2.38;;
27792;SDS011;15174;48.190;11.462;2024-02-26T10:20:29;5.78;;;2.05;;
27792;SDS011;15174;48.190;11.462;2024-02-26T10:22:56;7.90;;;1.92;;
27792;SDS011;15174;48.190;11.462;2024-02-26T10:25:23;2.40;;;1.40;;
27792;SDS011;15174;48.190;11.462;2024-02-26T10:27:49;5.88;;;1.73;;
27792;SDS011;15174;48.190;11.462;2024-02-26T10:30:19;5.57;;;1.88;;
27792;SDS011;15174;48.190;11.462;2024-02-26T10:32:46;13.63;;;2.90;;
27792;SDS011;15174;48.190;11.462;2024-02-26T10:35:15;7.43;;;1.83;;
27792;SDS011;15174;48.190;11.462;2024-02-26T10:37:51;2.42;;;1.30;;
27792;SDS011;15174;48.190;11.462;2024-02-26T10:40:17;1.63;;;1.30;;
27792;SDS011;15174;48.190;11.462;2024-02-26T10:42:44;6.65;;;1.35;;
27792;SDS011;15174;48.190;11.462;2024-02-26T10:45:11;9.07;;;2.10;;
27792;SDS011;15174;48.190;11.462;2024-02-26T10:47:37;2.80;;;0.95;;
27792;SDS011;15174;48.190;11.462;2024-02-26T10:50:04;2.70;;;1.17;;
27792;SDS011;15174;48.190;11.462;2024-02-26T10:52:31;3.35;;;1.40;;
27792;SDS011;15174;48.190;11.462;2024-02-26T10:54:59;2.17;;;1.13;;
27792;SDS011;15174;48.190;11.462;2024-02-26T10:57:27;6.68;;;1.52;;
27792;SDS011;15174;48.190;11.462;2024-02-26T10:59:57;1.92;;;1.13;;
27792;SDS011;15174;48.190;11.462;2024-02-26T11:02:23;4.45;;;1.33;;
27792;SDS011;15174;48.190;11.462;2024-02-26T11:04:50;1.85;;;1.25;;
27792;SDS011;15174;48.190;11.462;2024-02-26T11:07:16;4.88;;;1.40;;
27792;SDS011;15174;48.190;11.462;2024-02-26T11:09:43;5.18;;;2.08;;
27792;SDS011;15174;48.190;11.462;2024-02-26T11:14:38;4.43;;;1.90;;
27792;SDS011;15174;48.190;11.462;2024-02-26T11:17:06;3.90;;;2.03;;
27792;SDS011;15174;48.190;11.462;2024-02-26T11:19:33;4.88;;;1.83;;
27792;SDS011;15174;48.190;11.462;2024-02-26T11:24:27;2.83;;;1.65;;
27792;SDS011;15174;48.190;11.462;2024-02-26T11:26:57;2.53;;;1.05;;
27792;SDS011;15174;48.190;11.462;2024-02-26T11:29:25;5.97;;;1.42;;
27792;SDS011;15174;48.190;11.462;2024-02-26T11:34:18;7.03;;;1.60;;
27792;SDS011;15174;48.190;11.462;2024-02-26T11:36:45;4.00;;;1.15;;
27792;SDS011;15174;48.190;11.462;2024-02-26T11:39:12;3.95;;;1.23;;
27792;SDS011;15174;48.190;11.462;2024-02-26T11:41:40;3.83;;;1.08;;
27792;SDS011;15174;48.190;11.462;2024-02-26T11:44:06;1.75;;;1.08;;
27792;SDS011;15174;48.190;11.462;2024-02-26T11:46:32;1.52;;;0.90;;
27792;SDS011;15174;48.190;11.462;2024-02-26T11:49:02;6.80;;;1.30;;
27792;SDS011;15174;48.190;11.462;2024-02-26T11:51:32;1.83;;;1.10;;
27792;SDS011;15174;48.190;11.462;2024-02-26T11:53:59;2.92;;;0.88;;
27792;SDS011;15174;48.190;11.462;2024-02-26T11:56:25;3.53;;;0.90;;
27792;SDS011;15174;48.190;11.462;2024-02-26T11:58:58;2.67;;;0.90;;
27792;SDS011;15174;48.190;11.462;2024-02-26T12:01:38;2.15;;;0.75;;
27792;SDS011;15174;48.190;11.462;2024-02-26T12:04:04;3.72;;;1.30;;
27792;SDS011;15174;48.190;11.462;2024-02-26T12:06:31;2.63;;;1.15;;
27792;SDS011;15174;48.190;11.462;2024-02-26T12:08:57;3.15;;;1.50;;
27792;SDS011;15174;48.190;11.462;2024-02-26T12:11:23;4.30;;;1.35;;
27792;SDS011;15174;48.190;11.462;2024-02-26T12:13:53;1.65;;;1.00;;
27792;SDS011;15174;48.190;11.462;2024-02-26T12:16:38;1.25;;;0.90;;
27792;SDS011;15174;48.190;11.462;2024-02-26T12:19:05;2.38;;;1.00;;
27792;SDS011;15174;48.190;11.462;2024-02-26T12:21:33;4.13;;;0.87;;
27792;SDS011;15174;48.190;11.462;2024-02-26T12:24:12;3.17;;;0.90;;
27792;SDS011;15174;48.190;11.462;2024-02-26T12:29:04;6.47;;;1.30;;
27792;SDS011;15174;48.190;11.462;2024-02-26T12:31:31;1.83;;;1.05;;
27792;SDS011;15174;48.190;11.462;2024-02-26T12:33:58;1.17;;;0.90;;
27792;SDS011;15174;48.190;11.462;2024-02-26T12:36:24;2.03;;;1.02;;
27792;SDS011;15174;48.190;11.462;2024-02-26T12:38:50;0.65;;;0.50;;
27792;SDS011;15174;48.190;11.462;2024-02-26T12:41:17;2.45;;;0.90;;
27792;SDS011;15174;48.190;11.462;2024-02-26T12:43:43;1.50;;;1.10;;
27792;SDS011;15174;48.190;11.462;2024-02-26T12:46:09;4.25;;;1.08;;
27792;SDS011;15174;48.190;11.462;2024-02-26T12:48:36;1.43;;;0.90;;
27792;SDS011;15174;48.190;11.462;2024-02-26T12:51:03;3.30;;;1.10;;
27792;SDS011;15174;48.190;11.462;2024-02-26T12:53:29;2.00;;;1.17;;
27792;SDS011;15174;48.190;11.462;2024-02-26T12:55:55;2.45;;;1.20;;
27792;SDS011;15174;48.190;11.462;2024-02-26T12:58:21;2.08;;;1.10;;
27792;SDS011;15174;48.190;11.462;2024-02-26T13:00:53;4.30;;;1.15;;
27792;SDS011;15174;48.190;11.462;2024-02-26T13:03:19;2.00;;;0.90;;
27792;SDS011;15174;48.190;11.462;2024-02-26T13:05:45;2.58;;;0.90;;
27792;SDS011;15174;48.190;11.462;2024-02-26T13:08:17;1.58;;;0.80;;
27792;SDS011;15174;48.190;11.462;2024-02-26T13:10:45;1.02;;;0.85;;
27792;SDS011;15174;48.190;11.462;2024-02-26T13:13:11;3.40;;;1.55;;
27792;SDS011;15174;48.190;11.462;2024-02-26T13:15:37;2.13;;;1.40;;
27792;SDS011;15174;48.190;11.462;2024-02-26T13:18:13;2.50;;;1.15;;
27792;SDS011;15174;48.190;11.462;2024-02-26T13:20:40;5.07;;;1.38;;
27792;SDS011;15174;48.190;11.462;2024-02-26T13:23:06;1.58;;;1.10;;
27792;SDS011;15174;48.190;11.462;2024-02-26T13:25:33;1.70;;;1.15;;
27792;SDS011;15174;48.190;11.462;2024-02-26T13:30:33;6.22;;;1.45;;
27792;SDS011;15174;48.190;11.462;2024-02-26T13:33:06;2.03;;;1.33;;
27792;SDS011;15174;48.190;11.462;2024-02-26T13:35:33;2.72;;;1.17;;
27792;SDS011;15174;48.190;11.462;2024-02-26T13:38:00;1.45;;;1.05;;
27792;SDS011;15174;48.190;11.462;2024-02-26T13:40:26;2.65;;;1.50;;
27792;SDS011;15174;48.190;11.462;2024-02-26T13:42:52;2.65;;;1.50;;
27792;SDS011;15174;48.190;11.462;2024-02-26T13:45:18;6.07;;;1.48;;
27792;SDS011;15174;48.190;11.462;2024-02-26T13:47:44;2.70;;;1.50;;
27792;SDS011;15174;48.190;11.462;2024-02-26T13:50:10;1.13;;;0.98;;
27792;SDS011;15174;48.190;11.462;2024-02-26T13:52:36;1.55;;;1.02;;
27792;SDS011;15174;48.190;11.462;2024-02-26T13:55:02;3.58;;;1.17;;
27792;SDS011;15174;48.190;11.462;2024-02-26T13:57:28;2.70;;;1.20;;
27792;SDS011;15174;48.190;11.462;2024-02-26T13:59:54;6.20;;;1.85;;
27792;SDS011;15174;48.190;11.462;2024-02-26T14:02:21;3.22;;;1.08;;
27792;SDS011;15174;48.190;11.462;2024-02-26T14:04:47;5.40;;;1.10;;
27792;SDS011;15174;48.190;11.462;2024-02-26T14:07:13;1.58;;;0.93;;
27792;SDS011;15174;48.190;11.462;2024-02-26T14:09:39;2.00;;;0.93;;
27792;SDS011;15174;48.190;11.462;2024-02-26T14:12:05;1.60;;;1.10;;
27792;SDS011;15174;48.190;11.462;2024-02-26T14:14:32;3.53;;;0.95;;
27792;SDS011;15174;48.190;11.462;2024-02-26T14:17:00;2.35;;;0.80;;
27792;SDS011;15174;48.190;11.462;2024-02-26T14:21:54;0.93;;;0.70;;
27792;SDS011;15174;48.190;11.462;2024-02-26T14:24:20;0.68;;;0.63;;
27792;SDS011;15174;48.190;11.462;2024-02-26T14:26:46;0.95;;;0.70;;
27792;SDS011;15174;48.190;11.462;2024-02-26T14:29:12;0.73;;;0.70;;
27792;SDS011;15174;48.190;11.462;2024-02-26T14:31:39;5.88;;;1.00;;
27792;SDS011;15174;48.190;11.462;2024-02-26T14:34:05;2.90;;;1.52;;
27792;SDS011;15174;48.190;11.462;2024-02-26T14:36:32;4.50;;;2.60;;
27792;SDS011;15174;48.190;11.462;2024-02-26T14:38:58;4.70;;;1.30;;
27792;SDS011;15174;48.190;11.462;2024-02-26T14:41:24;2.63;;;1.20;;
27792;SDS011;15174;48.190;11.462;2024-02-26T14:43:50;3.90;;;1.42;;
27792;SDS011;15174;48.190;11.462;2024-02-26T14:46:16;1.90;;;1.20;;
27792;SDS011;15174;48.190;11.462;2024-02-26T14:48:42;6.50;;;1.40;;
27792;SDS011;15174;48.190;11.462;2024-02-26T14:51:08;6.90;;;1.60;;